createdAt,value
2018-04-02T00:00:50.825Z,18.50
2018-04-02T00:01:50.998Z,18.70
2018-04-02T00:02:51.045Z,19.50
2018-04-02T00:03:51.068Z,18.90
2018-04-02T00:04:51.195Z,22.10
2018-04-02T00:05:51.287Z,22.40
2018-04-02T00:06:51.379Z,20.20
2018-04-02T00:07:51.507Z,21.30
2018-04-02T00:08:51.609Z,21.80
2018-04-02T00:09:51.777Z,23.00
2018-04-02T00:10:51.845Z,22.20
2018-04-02T00:11:51.826Z,21.60
2018-04-02T00:12:51.927Z,21.20
2018-04-02T00:13:52.021Z,21.30
2018-04-02T00:14:52.048Z,21.40
2018-04-02T00:15:52.168Z,19.00
2018-04-02T00:16:52.260Z,20.60
2018-04-02T00:17:52.427Z,20.50
2018-04-02T00:18:52.491Z,19.50
2018-04-02T00:19:52.585Z,19.10
2018-04-02T00:20:52.657Z,20.00
2018-04-02T00:21:52.883Z,19.80
2018-04-02T00:22:52.863Z,19.80
2018-04-02T00:23:52.949Z,19.50
2018-04-02T00:24:53.135Z,19.70
2018-04-02T00:25:53.191Z,21.40
2018-04-02T00:26:53.278Z,22.60
2018-04-02T00:27:53.375Z,21.80
2018-04-02T00:28:53.401Z,21.50
2018-04-02T00:29:53.492Z,20.10
2018-04-02T00:30:53.649Z,20.80
2018-04-02T00:31:53.610Z,20.50
2018-04-02T00:32:53.695Z,22.00
2018-04-02T00:33:53.858Z,21.30
2018-04-02T00:34:53.975Z,21.40
2018-04-02T00:35:54.083Z,20.50
2018-04-02T00:36:54.212Z,20.90
2018-04-02T00:37:54.341Z,19.80
2018-04-02T00:38:54.460Z,19.20
2018-04-02T00:39:54.569Z,20.00
2018-04-02T00:40:54.698Z,18.70
2018-04-02T00:41:54.803Z,18.60
2018-04-02T00:42:54.964Z,18.20
2018-04-02T00:43:55.040Z,19.20
2018-04-02T00:44:55.024Z,19.30
2018-04-02T00:45:55.147Z,18.80
2018-04-02T00:46:55.135Z,19.50
2018-04-02T00:47:55.254Z,19.50
2018-04-02T00:48:55.311Z,19.30
2018-04-02T00:49:55.456Z,18.00
2018-04-02T00:50:55.560Z,18.80
2018-04-02T00:51:55.642Z,18.10
2018-04-02T00:52:55.728Z,18.30
2018-04-02T00:53:55.845Z,18.40
2018-04-02T00:54:55.960Z,18.50
2018-04-02T00:55:56.053Z,18.60
2018-04-02T00:56:56.144Z,18.90
2018-04-02T00:57:56.280Z,18.20
2018-04-02T00:58:56.374Z,18.40
2018-04-02T00:59:56.491Z,18.90
2018-04-02T01:00:56.572Z,17.50
2018-04-02T01:01:56.670Z,18.70
2018-04-02T01:02:56.752Z,18.70
2018-04-02T01:03:56.886Z,19.90
2018-04-02T01:04:56.967Z,19.30
2018-04-02T01:05:57.070Z,19.20
2018-04-02T01:06:57.198Z,19.30
2018-04-02T01:07:57.367Z,19.40
2018-04-02T01:08:57.479Z,19.00
2018-04-02T01:09:57.593Z,19.00
2018-04-02T01:10:57.667Z,19.70
2018-04-02T01:11:57.742Z,18.70
2018-04-02T01:12:57.816Z,18.60
2018-04-02T01:13:57.929Z,19.30
2018-04-02T01:14:58.018Z,19.30
2018-04-02T01:15:58.109Z,19.20
2018-04-02T01:16:58.211Z,18.40
2018-04-02T01:17:58.289Z,19.70
2018-04-02T01:18:58.406Z,18.90
2018-04-02T01:19:58.508Z,19.30
2018-04-02T01:20:58.591Z,18.70
2018-04-02T01:21:58.726Z,18.90
2018-04-02T01:22:58.810Z,18.90
2018-04-02T01:23:58.898Z,19.10
2018-04-02T01:24:58.984Z,19.60
2018-04-02T01:25:59.099Z,19.60
2018-04-02T01:26:59.224Z,19.00
2018-04-02T01:27:59.300Z,19.40
2018-04-02T01:28:59.388Z,20.20
2018-04-02T01:29:59.465Z,19.40
2018-04-02T01:30:59.569Z,20.30
2018-04-02T01:31:59.650Z,19.60
2018-04-02T01:32:59.759Z,19.60
2018-04-02T01:33:59.869Z,19.90
2018-04-02T01:34:59.948Z,19.60
2018-04-02T01:36:00.034Z,20.70
2018-04-02T01:37:00.130Z,19.30
2018-04-02T01:38:00.245Z,19.80
2018-04-02T01:39:00.327Z,19.90
2018-04-02T01:40:00.406Z,19.90
2018-04-02T01:41:00.500Z,19.50
2018-04-02T01:42:00.600Z,19.80
2018-04-02T01:43:00.704Z,19.60
2018-04-02T01:44:00.812Z,19.50
2018-04-02T01:45:00.905Z,19.60
2018-04-02T01:46:00.977Z,20.00
2018-04-02T01:47:01.114Z,19.80
2018-04-02T01:48:01.227Z,19.60
2018-04-02T01:49:01.304Z,20.70
2018-04-02T01:50:01.404Z,20.10
2018-04-02T01:51:01.580Z,21.30
2018-04-02T01:52:01.567Z,21.20
2018-04-02T01:53:01.653Z,21.80
2018-04-02T01:54:01.730Z,20.40
2018-04-02T01:55:01.882Z,21.20
2018-04-02T01:56:01.963Z,21.30
2018-04-02T01:57:02.090Z,20.80
2018-04-02T01:58:02.173Z,21.70
2018-04-02T01:59:02.295Z,21.40
2018-04-02T02:00:02.508Z,20.70
2018-04-02T02:01:02.411Z,20.80
2018-04-02T02:02:02.549Z,21.00
2018-04-02T02:03:02.637Z,20.50
2018-04-02T02:04:02.748Z,20.90
2018-04-02T02:05:02.827Z,20.50
2018-04-02T02:06:02.955Z,19.80
2018-04-02T02:07:02.969Z,21.40
2018-04-02T02:08:03.111Z,20.50
2018-04-02T02:09:03.214Z,20.80
2018-04-02T02:10:03.299Z,21.10
2018-04-02T02:11:03.532Z,20.50
2018-04-02T02:12:03.495Z,20.80
2018-04-02T02:13:03.593Z,20.90
2018-04-02T02:14:03.670Z,21.50
2018-04-02T02:15:03.760Z,20.90
2018-04-02T02:16:03.913Z,20.80
2018-04-02T02:17:03.933Z,20.50
2018-04-02T02:18:04.047Z,20.90
2018-04-02T02:19:04.084Z,19.70
2018-04-02T02:20:04.197Z,21.20
2018-04-02T02:21:04.226Z,20.70
2018-04-02T02:22:04.356Z,21.10
2018-04-02T02:23:04.456Z,21.30
2018-04-02T02:24:04.640Z,22.00
2018-04-02T02:25:04.611Z,21.10
2018-04-02T02:26:04.694Z,21.80
2018-04-02T02:27:04.784Z,22.10
2018-04-02T02:28:04.882Z,21.90
2018-04-02T02:29:05.013Z,20.60
2018-04-02T02:30:05.105Z,20.30
2018-04-02T02:31:05.189Z,20.70
2018-04-02T02:32:05.270Z,20.70
2018-04-02T02:33:05.364Z,21.30
2018-04-02T02:34:05.449Z,21.30
2018-04-02T02:35:05.544Z,21.90
2018-04-02T02:36:05.729Z,21.50
2018-04-02T02:37:05.714Z,21.40
2018-04-02T02:38:05.805Z,21.70
2018-04-02T02:39:05.898Z,20.90
2018-04-02T02:40:06.016Z,21.30
2018-04-02T02:41:06.156Z,21.20
2018-04-02T02:42:06.262Z,21.30
2018-04-02T02:43:06.350Z,21.70
2018-04-02T02:44:06.447Z,22.00
2018-04-02T02:45:06.525Z,20.80
2018-04-02T02:46:06.615Z,22.10
2018-04-02T02:47:06.701Z,22.10
2018-04-02T02:48:06.792Z,22.10
2018-04-02T02:49:06.886Z,21.40
2018-04-02T02:50:06.971Z,22.00
2018-04-02T02:51:07.055Z,21.80
2018-04-02T02:52:07.141Z,22.60
2018-04-02T02:53:07.229Z,21.60
2018-04-02T02:54:07.338Z,22.40
2018-04-02T02:55:07.420Z,21.40
2018-04-02T02:56:07.498Z,22.90
2018-04-02T02:57:07.595Z,21.10
2018-04-02T02:58:07.678Z,22.30
2018-04-02T02:59:07.774Z,22.30
2018-04-02T03:00:07.861Z,21.80
2018-04-02T03:01:07.959Z,22.80
2018-04-02T03:02:08.039Z,22.70
2018-04-02T03:03:08.135Z,22.60
2018-04-02T03:04:08.228Z,22.10
2018-04-02T03:05:08.318Z,22.60
2018-04-02T03:06:08.410Z,22.70
2018-04-02T03:07:08.501Z,22.00
2018-04-02T03:08:08.595Z,22.50
2018-04-02T03:09:08.690Z,22.80
2018-04-02T03:10:08.777Z,22.60
2018-04-02T03:11:08.858Z,22.30
2018-04-02T03:12:08.953Z,22.80
2018-04-02T03:13:09.047Z,23.10
2018-04-02T03:14:09.128Z,23.30
2018-04-02T03:15:09.219Z,23.20
2018-04-02T03:16:09.304Z,22.20
2018-04-02T03:17:09.395Z,23.50
2018-04-02T03:18:09.486Z,23.30
2018-04-02T03:19:09.575Z,22.60
2018-04-02T03:20:09.663Z,22.40
2018-04-02T03:21:09.752Z,23.00
2018-04-02T03:22:09.842Z,22.60
2018-04-02T03:23:09.928Z,23.40
2018-04-02T03:24:10.018Z,22.90
2018-04-02T03:25:10.106Z,22.50
2018-04-02T03:26:10.192Z,22.80
2018-04-02T03:27:10.285Z,22.80
2018-04-02T03:28:10.389Z,22.70
2018-04-02T03:29:10.484Z,22.90
2018-04-02T03:30:10.578Z,23.40
2018-04-02T03:31:10.655Z,23.20
2018-04-02T03:32:10.741Z,23.20
2018-04-02T03:33:10.832Z,22.80
2018-04-02T03:34:10.919Z,23.00
2018-04-02T03:35:11.009Z,23.00
2018-04-02T03:36:11.100Z,23.00
2018-04-02T03:37:11.196Z,23.20
2018-04-02T03:38:11.279Z,24.00
2018-04-02T03:39:11.370Z,23.30
2018-04-02T03:40:11.461Z,22.90
2018-04-02T03:41:11.544Z,23.50
2018-04-02T03:42:11.636Z,22.80
2018-04-02T03:43:11.726Z,23.00
2018-04-02T03:44:11.815Z,23.50
2018-04-02T03:45:11.905Z,22.90
2018-04-02T03:46:11.992Z,22.90
2018-04-02T03:47:12.082Z,22.80
2018-04-02T03:48:12.170Z,22.30
2018-04-02T03:49:12.255Z,23.20
2018-04-02T03:50:12.347Z,23.20
2018-04-02T03:51:12.439Z,23.50
2018-04-02T03:52:12.575Z,23.50
2018-04-02T03:53:12.662Z,23.00
2018-04-02T03:54:12.747Z,23.90
2018-04-02T03:55:12.837Z,23.00
2018-04-02T03:56:12.926Z,22.90
2018-04-02T03:57:13.012Z,22.60
2018-04-02T03:58:13.103Z,23.60
2018-04-02T03:59:13.194Z,22.90
2018-04-02T04:00:13.270Z,22.30
2018-04-02T04:01:13.375Z,23.70
2018-04-02T04:02:13.462Z,22.10
2018-04-02T04:03:13.557Z,22.40
2018-04-02T04:04:13.645Z,22.00
2018-04-02T04:05:13.737Z,22.10
2018-04-02T04:06:13.840Z,21.80
2018-04-02T04:07:13.935Z,22.20
2018-04-02T04:08:14.020Z,21.60
2018-04-02T04:09:14.113Z,21.70
2018-04-02T04:10:14.201Z,22.40
2018-04-02T04:11:14.297Z,22.20
2018-04-02T04:12:14.411Z,22.00
2018-04-02T04:13:14.476Z,21.80
2018-04-02T04:14:14.562Z,22.70
2018-04-02T04:15:14.650Z,22.00
2018-04-02T04:16:14.737Z,22.50
2018-04-02T04:17:14.849Z,22.00
2018-04-02T04:18:14.917Z,21.80
2018-04-02T04:19:14.996Z,22.20
2018-04-02T04:20:15.084Z,22.80
2018-04-02T04:21:15.171Z,22.90
2018-04-02T04:22:15.265Z,22.60
2018-04-02T04:23:15.356Z,22.30
2018-04-02T04:24:15.446Z,22.60
2018-04-02T04:25:15.534Z,22.50
2018-04-02T04:26:15.621Z,22.40
2018-04-02T04:27:15.711Z,22.30
2018-04-02T04:28:15.802Z,22.30
2018-04-02T04:29:15.892Z,23.00
2018-04-02T04:30:15.984Z,22.70
2018-04-02T04:31:16.084Z,23.60
2018-04-02T04:32:16.176Z,22.60
2018-04-02T04:33:16.264Z,23.00
2018-04-02T04:34:16.353Z,23.40
2018-04-02T04:35:16.441Z,23.50
2018-04-02T04:36:16.531Z,24.60
2018-04-02T04:37:16.620Z,24.00
2018-04-02T04:38:16.712Z,23.60
2018-04-02T04:39:16.796Z,24.30
2018-04-02T04:40:16.931Z,23.70
2018-04-02T04:41:16.975Z,26.10
2018-04-02T04:42:17.066Z,26.00
2018-04-02T04:43:17.156Z,24.20
2018-04-02T04:44:17.238Z,24.30
2018-04-02T04:45:17.342Z,25.00
2018-04-02T04:46:17.429Z,23.10
2018-04-02T04:47:17.524Z,23.20
2018-04-02T04:48:17.611Z,23.20
2018-04-02T04:49:17.699Z,22.90
2018-04-02T04:50:17.810Z,23.40
2018-04-02T04:51:17.898Z,23.00
2018-04-02T04:52:17.992Z,22.90
2018-04-02T04:53:18.080Z,23.00
2018-04-02T04:54:18.167Z,23.10
2018-04-02T04:55:18.258Z,23.10
2018-04-02T04:56:18.347Z,23.00
2018-04-02T04:57:18.436Z,21.10
2018-04-02T04:58:18.524Z,22.80
2018-04-02T04:59:18.615Z,22.40
2018-04-02T05:00:18.698Z,23.40
2018-04-02T05:01:18.789Z,22.70
2018-04-02T05:02:18.879Z,23.50
2018-04-02T05:03:18.972Z,24.50
2018-04-02T05:04:19.059Z,24.30
2018-04-02T05:05:19.147Z,22.60
2018-04-02T05:06:19.235Z,23.90
2018-04-02T05:07:19.324Z,23.20
2018-04-02T05:08:20.164Z,23.50
2018-04-02T05:09:20.123Z,23.20
2018-04-02T05:10:19.927Z,24.20
2018-04-02T05:11:19.689Z,23.30
2018-04-02T05:12:19.898Z,24.00
2018-04-02T05:13:19.862Z,25.00
2018-04-02T05:14:19.908Z,25.20
2018-04-02T05:15:20.148Z,24.80
2018-04-02T05:16:20.118Z,24.80
2018-04-02T05:17:20.272Z,23.20
2018-04-02T05:18:20.383Z,24.60
2018-04-02T05:19:20.458Z,24.50
2018-04-02T05:20:20.570Z,24.60
2018-04-02T05:21:20.707Z,24.60
2018-04-02T05:22:20.792Z,23.40
2018-04-02T05:23:21.014Z,24.70
2018-04-02T05:24:21.177Z,25.40
2018-04-02T05:25:21.140Z,24.00
2018-04-02T05:26:21.237Z,23.40
2018-04-02T05:27:21.364Z,24.30
2018-04-02T05:28:21.487Z,24.20
2018-04-02T05:29:21.441Z,25.00
2018-04-02T05:30:21.483Z,24.00
2018-04-02T05:31:21.564Z,25.50
2018-04-02T05:32:21.679Z,23.60
2018-04-02T05:33:21.743Z,24.80
2018-04-02T05:34:21.829Z,24.40
2018-04-02T05:35:21.917Z,24.30
2018-04-02T05:36:22.058Z,26.90
2018-04-02T05:37:22.150Z,26.10
2018-04-02T05:38:22.198Z,25.10
2018-04-02T05:39:22.271Z,25.30
2018-04-02T05:40:22.341Z,25.20
2018-04-02T05:41:22.431Z,24.90
2018-04-02T05:42:22.549Z,25.20
2018-04-02T05:43:22.667Z,25.10
2018-04-02T05:44:22.791Z,25.30
2018-04-02T05:45:22.880Z,26.20
2018-04-02T05:46:22.997Z,25.40
2018-04-02T05:47:23.095Z,25.80
2018-04-02T05:48:23.104Z,25.50
2018-04-02T05:49:23.203Z,25.60
2018-04-02T05:50:23.285Z,25.70
2018-04-02T05:51:23.361Z,25.80
2018-04-02T05:52:23.614Z,26.70
2018-04-02T05:53:23.610Z,26.40
2018-04-02T05:54:23.745Z,26.40
2018-04-02T05:55:23.912Z,26.20
2018-04-02T05:56:23.872Z,25.70
2018-04-02T05:57:24.019Z,25.40
2018-04-02T05:58:24.103Z,26.70
2018-04-02T05:59:24.206Z,26.90
2018-04-02T06:00:24.304Z,26.60
2018-04-02T06:01:24.470Z,25.60
2018-04-02T06:02:24.543Z,26.20
2018-04-02T06:03:24.660Z,25.80
2018-04-02T06:04:24.797Z,27.20
2018-04-02T06:05:24.833Z,26.00
2018-04-02T06:06:24.929Z,25.90
2018-04-02T06:07:25.014Z,24.70
2018-04-02T06:08:25.112Z,26.00
2018-04-02T06:09:25.210Z,25.70
2018-04-02T06:10:25.356Z,25.80
2018-04-02T06:11:25.336Z,26.60
2018-04-02T06:12:25.430Z,26.90
2018-04-02T06:13:25.517Z,28.00
2018-04-02T06:14:25.627Z,27.10
2018-04-02T06:15:25.732Z,28.80
2018-04-02T06:16:25.823Z,26.40
2018-04-02T06:17:25.949Z,28.60
2018-04-02T06:18:26.040Z,29.20
2018-04-02T06:19:26.152Z,29.30
2018-04-02T06:20:26.239Z,29.00
2018-04-02T06:21:26.333Z,29.40
2018-04-02T06:22:26.483Z,28.50
2018-04-02T06:23:26.532Z,29.40
2018-04-02T06:24:26.643Z,30.40
2018-04-02T06:25:26.736Z,30.90
2018-04-02T06:26:26.848Z,30.20
2018-04-02T06:27:26.953Z,27.60
2018-04-02T06:28:27.053Z,27.40
2018-04-02T06:29:27.138Z,28.90
2018-04-02T06:30:27.224Z,28.40
2018-04-02T06:31:27.316Z,30.70
2018-04-02T06:32:27.408Z,30.90
2018-04-02T06:33:27.516Z,31.00
2018-04-02T06:34:27.626Z,31.70
2018-04-02T06:35:27.717Z,32.60
2018-04-02T06:36:27.829Z,33.30
2018-04-02T06:37:27.933Z,32.00
2018-04-02T06:38:28.009Z,31.70
2018-04-02T06:39:28.152Z,32.10
2018-04-02T06:40:28.232Z,31.00
2018-04-02T06:41:28.313Z,31.80
2018-04-02T06:42:28.470Z,33.30
2018-04-02T06:43:28.567Z,32.00
2018-04-02T06:44:28.648Z,31.40
2018-04-02T06:45:28.740Z,32.10
2018-04-02T06:46:28.842Z,31.30
2018-04-02T06:47:28.949Z,32.50
2018-04-02T06:48:29.035Z,31.50
2018-04-02T06:49:29.113Z,32.00
2018-04-02T06:50:29.196Z,31.40
2018-04-02T06:51:29.287Z,31.40
2018-04-02T06:52:29.396Z,32.30
2018-04-02T06:53:29.493Z,31.70
2018-04-02T06:54:29.667Z,31.30
2018-04-02T06:55:29.689Z,31.20
2018-04-02T06:56:29.779Z,30.90
2018-04-02T06:57:29.873Z,31.90
2018-04-02T06:58:29.955Z,31.80
2018-04-02T06:59:30.046Z,30.70
2018-04-02T07:00:30.134Z,31.70
2018-04-02T07:01:30.217Z,31.60
2018-04-02T07:02:30.319Z,31.40
2018-04-02T07:03:30.440Z,31.50
2018-04-02T07:04:30.557Z,32.60
2018-04-02T07:05:30.637Z,32.80
2018-04-02T07:06:30.742Z,32.20
2018-04-02T07:07:30.835Z,32.70
2018-04-02T07:08:30.942Z,32.60
2018-04-02T07:09:31.093Z,32.20
2018-04-02T07:10:31.178Z,31.20
2018-04-02T07:11:31.276Z,32.40
2018-04-02T07:12:31.370Z,32.20
2018-04-02T07:13:31.530Z,32.50
2018-04-02T07:14:31.578Z,31.40
2018-04-02T07:15:31.682Z,31.70
2018-04-02T07:16:31.779Z,32.40
2018-04-02T07:17:31.889Z,32.10
2018-04-02T07:18:32.002Z,30.20
2018-04-02T07:19:32.102Z,32.70
2018-04-02T07:20:32.181Z,32.90
2018-04-02T07:21:32.277Z,32.70
2018-04-02T07:22:32.357Z,33.20
2018-04-02T07:23:32.460Z,32.20
2018-04-02T07:24:32.572Z,32.30
2018-04-02T07:25:32.644Z,31.70
2018-04-02T07:26:32.767Z,32.90
2018-04-02T07:27:32.847Z,31.70
2018-04-02T07:28:32.934Z,33.30
2018-04-02T07:29:33.057Z,32.40
2018-04-02T07:30:33.148Z,32.40
2018-04-02T07:31:33.297Z,32.10
2018-04-02T07:32:33.379Z,33.40
2018-04-02T07:33:33.482Z,33.60
2018-04-02T07:34:33.574Z,34.70
2018-04-02T07:35:33.661Z,34.20
2018-04-02T07:36:33.750Z,33.10
2018-04-02T07:37:33.845Z,34.60
2018-04-02T07:38:33.966Z,34.00
2018-04-02T07:39:34.055Z,35.10
2018-04-02T07:40:34.149Z,33.90
2018-04-02T07:41:34.245Z,34.80
2018-04-02T07:42:34.335Z,34.20
2018-04-02T07:43:34.484Z,35.00
2018-04-02T07:44:34.572Z,40.60
2018-04-02T07:45:34.673Z,36.10
2018-04-02T07:46:34.760Z,35.50
2018-04-02T07:47:34.848Z,35.90
2018-04-02T07:48:34.944Z,35.60
2018-04-02T07:49:35.031Z,33.80
2018-04-02T07:50:35.171Z,35.60
2018-04-02T07:51:35.294Z,36.90
2018-04-02T07:52:35.288Z,34.80
2018-04-02T07:53:35.397Z,35.80
2018-04-02T07:54:35.499Z,34.80
2018-04-02T07:55:35.578Z,35.40
2018-04-02T07:56:35.669Z,35.00
2018-04-02T07:57:35.764Z,35.50
2018-04-02T07:58:35.863Z,35.10
2018-04-02T07:59:35.953Z,36.00
2018-04-02T08:00:36.044Z,36.30
2018-04-02T08:01:36.138Z,35.50
2018-04-02T08:02:36.230Z,35.00
2018-04-02T08:03:36.316Z,36.00
2018-04-02T08:04:36.419Z,36.00
2018-04-02T08:05:36.502Z,35.10
2018-04-02T08:06:36.586Z,36.40
2018-04-02T08:07:36.685Z,36.30
2018-04-02T08:08:36.783Z,37.60
2018-04-02T08:09:36.890Z,36.70
2018-04-02T08:10:37.601Z,38.10
2018-04-02T08:11:37.075Z,35.20
2018-04-02T08:12:37.173Z,36.40
2018-04-02T08:13:37.276Z,35.70
2018-04-02T08:14:37.372Z,37.90
2018-04-02T08:15:37.463Z,35.80
2018-04-02T08:16:37.558Z,35.70
2018-04-02T08:17:37.651Z,36.50
2018-04-02T08:18:37.747Z,37.40
2018-04-02T08:19:37.841Z,36.40
2018-04-02T08:20:37.930Z,37.50
2018-04-02T08:21:38.022Z,36.90
2018-04-02T08:22:38.116Z,36.30
2018-04-02T08:23:38.220Z,35.20
2018-04-02T08:24:38.311Z,35.20
2018-04-02T08:25:38.403Z,33.80
2018-04-02T08:26:38.498Z,35.30
2018-04-02T08:27:38.592Z,33.20
2018-04-02T08:28:38.691Z,34.50
2018-04-02T08:29:38.786Z,32.30
2018-04-02T08:30:38.883Z,32.90
2018-04-02T08:31:38.977Z,32.80
2018-04-02T08:32:39.122Z,34.30
2018-04-02T08:33:39.168Z,36.40
2018-04-02T08:34:39.261Z,38.60
2018-04-02T08:35:39.352Z,34.40
2018-04-02T08:36:39.449Z,33.50
2018-04-02T08:37:39.541Z,34.20
2018-04-02T08:38:39.650Z,34.40
2018-04-02T08:39:39.734Z,33.60
2018-04-02T08:40:39.823Z,35.00
2018-04-02T08:41:39.918Z,33.20
2018-04-02T08:42:40.014Z,33.40
2018-04-02T08:43:40.107Z,32.60
2018-04-02T08:44:40.204Z,33.80
2018-04-02T08:45:40.298Z,33.80
2018-04-02T08:46:40.392Z,33.60
2018-04-02T08:47:40.484Z,32.40
2018-04-02T08:48:40.576Z,33.70
2018-04-02T08:49:40.680Z,33.50
2018-04-02T08:50:40.773Z,33.20
2018-04-02T08:51:40.868Z,33.40
2018-04-02T08:52:40.957Z,33.10
2018-04-02T08:53:41.053Z,32.50
2018-04-02T08:54:41.147Z,33.30
2018-04-02T08:55:41.258Z,32.60
2018-04-02T08:56:41.353Z,32.30
2018-04-02T08:57:41.451Z,32.20
2018-04-02T08:58:41.551Z,32.80
2018-04-02T08:59:41.634Z,33.40
2018-04-02T09:00:41.758Z,33.60
2018-04-02T09:01:41.836Z,34.10
2018-04-02T09:02:41.931Z,33.00
2018-04-02T09:03:42.017Z,33.10
2018-04-02T09:04:42.116Z,33.90
2018-04-02T09:05:42.205Z,33.40
2018-04-02T09:06:42.300Z,31.80
2018-04-02T09:07:42.393Z,31.80
2018-04-02T09:08:42.489Z,31.90
2018-04-02T09:09:42.585Z,33.40
2018-04-02T09:10:42.679Z,34.70
2018-04-02T09:11:42.777Z,33.40
2018-04-02T09:12:42.865Z,32.50
2018-04-02T09:13:42.960Z,32.10
2018-04-02T09:14:43.061Z,30.30
2018-04-02T09:15:43.153Z,31.60
2018-04-02T09:16:43.247Z,29.50
2018-04-02T09:17:43.339Z,30.00
2018-04-02T09:18:43.432Z,30.60
2018-04-02T09:19:43.538Z,30.60
2018-04-02T09:20:43.625Z,30.20
2018-04-02T09:21:43.718Z,30.60
2018-04-02T09:22:43.811Z,30.00
2018-04-02T09:23:43.905Z,30.90
2018-04-02T09:24:44.055Z,31.40
2018-04-02T09:25:44.602Z,31.20
2018-04-02T09:26:44.219Z,30.50
2018-04-02T09:27:44.321Z,29.60
2018-04-02T09:28:44.418Z,30.10
2018-04-02T09:29:44.559Z,29.70
2018-04-02T09:30:44.603Z,30.20
2018-04-02T09:31:44.702Z,29.10
2018-04-02T09:32:44.797Z,28.10
2018-04-02T09:33:44.902Z,28.30
2018-04-02T09:34:44.993Z,28.10
2018-04-02T09:35:45.092Z,28.00
2018-04-02T09:36:45.193Z,27.00
2018-04-02T09:37:45.290Z,28.20
2018-04-02T09:41:17.466Z,28.40
2018-04-02T09:42:17.562Z,27.90
2018-04-02T09:43:17.657Z,27.90
2018-04-02T09:44:17.760Z,27.40
2018-04-02T09:45:17.849Z,26.50
2018-04-02T09:46:17.946Z,26.40
2018-04-02T09:47:18.046Z,25.50
2018-04-02T09:48:18.139Z,26.70
2018-04-02T09:49:18.235Z,24.60
2018-04-02T09:50:18.332Z,24.10
2018-04-02T09:51:18.478Z,24.70
2018-04-02T09:52:18.505Z,24.10
2018-04-02T09:53:18.590Z,24.40
2018-04-02T09:54:18.709Z,24.40
2018-04-02T09:55:18.791Z,23.80
2018-04-02T09:56:18.884Z,24.30
2018-04-02T09:57:18.981Z,24.70
2018-04-02T09:58:19.079Z,23.50
2018-04-02T09:59:19.195Z,24.00
2018-04-02T10:00:19.255Z,23.60
2018-04-02T10:01:19.340Z,24.10
2018-04-02T10:02:19.428Z,23.60
2018-04-02T10:03:20.057Z,24.00
2018-04-02T10:04:19.715Z,22.90
2018-04-02T10:05:19.815Z,24.10
2018-04-02T10:06:19.912Z,22.10
2018-04-02T10:07:19.992Z,21.10
2018-04-02T10:08:20.092Z,21.80
2018-04-02T10:09:20.206Z,19.70
2018-04-02T10:10:20.356Z,19.90
2018-04-02T10:11:20.378Z,18.90
2018-04-02T10:12:20.476Z,18.10
2018-04-02T10:13:20.596Z,18.70
2018-04-02T10:14:20.814Z,17.50
2018-04-02T10:15:20.741Z,17.10
2018-04-02T10:16:20.860Z,17.60
2018-04-02T10:17:20.978Z,17.90
2018-04-02T10:18:21.057Z,16.60
2018-04-02T10:19:21.146Z,18.10
2018-04-02T10:20:21.291Z,17.60
2018-04-02T10:21:21.370Z,17.30
2018-04-02T10:22:21.477Z,18.20
2018-04-02T10:23:21.632Z,18.40
2018-04-02T10:24:21.708Z,17.60
2018-04-02T10:25:21.848Z,17.80
2018-04-02T10:26:21.965Z,16.30
2018-04-02T10:27:22.070Z,16.70
2018-04-02T10:28:22.321Z,16.90
2018-04-02T10:29:22.412Z,16.30
2018-04-02T10:30:22.411Z,16.60
2018-04-02T10:31:22.543Z,17.10
2018-04-02T10:32:22.646Z,15.90
2018-04-02T10:33:22.753Z,16.00
2018-04-02T10:34:22.836Z,15.80
2018-04-02T10:35:22.934Z,14.60
2018-04-02T10:36:23.030Z,15.80
2018-04-02T10:37:23.163Z,15.00
2018-04-02T10:38:23.256Z,14.90
2018-04-02T10:39:23.393Z,15.20
2018-04-02T10:40:23.508Z,14.80
2018-04-02T10:41:23.713Z,13.70
2018-04-02T10:42:23.645Z,14.30
2018-04-02T10:43:23.689Z,14.10
2018-04-02T10:44:23.777Z,14.00
2018-04-02T10:45:23.914Z,13.40
2018-04-02T10:46:24.001Z,14.10
2018-04-02T10:47:24.099Z,14.00
2018-04-02T10:48:24.227Z,13.90
2018-04-02T10:49:24.360Z,13.20
2018-04-02T10:50:24.451Z,13.70
2018-04-02T10:51:24.534Z,13.20
2018-04-02T10:52:24.649Z,13.70
2018-04-02T10:53:24.735Z,13.60
2018-04-02T10:54:24.837Z,13.40
2018-04-02T10:55:24.928Z,13.80
2018-04-02T10:56:25.008Z,12.60
2018-04-02T10:57:25.129Z,12.00
2018-04-02T10:58:25.211Z,11.60
2018-04-02T10:59:25.356Z,12.10
2018-04-02T11:00:25.441Z,11.80
2018-04-02T11:01:25.532Z,11.10
2018-04-02T11:02:25.668Z,9.90
2018-04-02T11:03:25.820Z,10.30
2018-04-02T11:04:25.965Z,10.10
2018-04-02T11:05:26.045Z,8.90
2018-04-02T11:06:26.148Z,9.40
2018-04-02T11:07:26.263Z,9.60
2018-04-02T11:08:26.370Z,9.30
2018-04-02T11:09:26.458Z,9.50
2018-04-02T11:10:26.554Z,9.60
2018-04-02T11:11:26.654Z,9.50
2018-04-02T11:12:26.759Z,9.10
2018-04-02T11:13:26.873Z,9.70
2018-04-02T11:14:26.951Z,9.30
2018-04-02T11:15:27.041Z,9.20
2018-04-02T11:16:27.146Z,9.00
2018-04-02T11:17:27.272Z,8.90
2018-04-02T11:18:27.387Z,8.20
2018-04-02T11:19:27.471Z,10.40
2018-04-02T11:20:27.557Z,9.70
2018-04-02T11:21:27.664Z,10.00
2018-04-02T11:22:27.758Z,9.60
2018-04-02T11:23:27.853Z,9.70
2018-04-02T11:24:27.949Z,9.90
2018-04-02T11:25:28.051Z,9.90
2018-04-02T11:26:28.193Z,9.30
2018-04-02T11:27:28.270Z,9.90
2018-04-02T11:28:28.358Z,9.30
2018-04-02T11:29:28.443Z,10.00
2018-04-02T11:30:28.538Z,9.50
2018-04-02T11:31:28.624Z,9.60
2018-04-02T11:32:28.729Z,9.10
2018-04-02T11:33:28.817Z,9.60
2018-04-02T11:34:28.895Z,8.70
2018-04-02T11:35:28.992Z,7.80
2018-04-02T11:36:29.074Z,8.20
2018-04-02T11:37:29.168Z,8.30
2018-04-02T11:38:29.275Z,8.20
2018-04-02T11:39:29.365Z,8.00
2018-04-02T11:40:29.479Z,8.60
2018-04-02T11:41:29.585Z,8.40
2018-04-02T11:42:29.679Z,8.60
2018-04-02T11:43:29.771Z,8.60
2018-04-02T11:44:29.869Z,8.60
2018-04-02T11:45:29.967Z,8.50
2018-04-02T11:46:30.064Z,8.40
2018-04-02T11:47:30.168Z,8.50
2018-04-02T11:48:30.247Z,8.50
2018-04-02T11:49:30.334Z,8.30
2018-04-02T11:50:30.461Z,8.50
2018-04-02T11:51:30.548Z,8.60
2018-04-02T11:52:30.643Z,8.60
2018-04-02T11:53:30.741Z,8.80
2018-04-02T11:54:30.841Z,7.90
2018-04-02T11:55:30.934Z,8.40
2018-04-02T11:56:31.049Z,8.20
2018-04-02T11:57:31.142Z,8.20
2018-04-02T11:58:31.231Z,8.00
2018-04-02T11:59:31.330Z,7.70
2018-04-02T12:00:31.424Z,7.80
2018-04-02T12:01:31.519Z,7.80
2018-04-02T12:02:31.614Z,7.60
2018-04-02T12:03:31.717Z,7.80
2018-04-02T12:04:31.814Z,7.10
2018-04-02T12:05:31.911Z,6.80
2018-04-02T12:06:32.004Z,6.40
2018-04-02T12:07:32.130Z,6.70
2018-04-02T12:08:32.221Z,6.20
2018-04-02T12:09:32.317Z,6.50
2018-04-02T12:10:32.416Z,6.50
2018-04-02T12:11:32.518Z,6.80
2018-04-02T12:12:32.614Z,6.70
2018-04-02T12:13:32.715Z,6.50
2018-04-02T12:14:32.832Z,6.60
2018-04-02T12:15:32.936Z,7.00
2018-04-02T12:16:33.019Z,6.40
2018-04-02T12:17:33.119Z,7.10
2018-04-02T12:18:33.214Z,6.70
2018-04-02T12:19:33.318Z,6.30
2018-04-02T12:20:33.415Z,6.80
2018-04-02T12:21:33.511Z,6.20
2018-04-02T12:22:33.611Z,6.60
2018-04-02T12:23:33.711Z,7.00
2018-04-02T12:24:33.800Z,6.70
2018-04-02T12:25:33.891Z,6.10
2018-04-02T12:26:33.988Z,6.10
2018-04-02T12:27:34.084Z,6.50
2018-04-02T12:28:34.172Z,6.30
2018-04-02T12:29:34.289Z,6.50
2018-04-02T12:30:34.364Z,6.10
2018-04-02T12:31:34.464Z,6.00
2018-04-02T12:32:34.558Z,5.70
2018-04-02T12:33:34.659Z,6.40
2018-04-02T12:34:34.759Z,5.90
2018-04-02T12:35:34.854Z,5.80
2018-04-02T12:36:34.949Z,6.60
2018-04-02T12:37:35.050Z,6.20
2018-04-02T12:38:35.174Z,6.40
2018-04-02T12:39:35.247Z,6.10
2018-04-02T12:40:35.344Z,6.10
2018-04-02T12:41:35.440Z,6.60
2018-04-02T12:42:35.530Z,6.00
2018-04-02T12:43:35.631Z,6.00
2018-04-02T12:44:35.720Z,6.90
2018-04-02T12:45:35.824Z,6.80
2018-04-02T12:46:35.922Z,6.20
2018-04-02T12:47:36.019Z,6.90
2018-04-02T12:48:36.109Z,6.30
2018-04-02T12:49:36.209Z,7.10
2018-04-02T12:50:36.301Z,6.90
2018-04-02T12:51:36.393Z,6.90
2018-04-02T12:52:36.485Z,7.00
2018-04-02T12:53:36.605Z,7.10
2018-04-02T12:54:36.678Z,6.70
2018-04-02T12:55:36.766Z,6.20
2018-04-02T12:56:36.859Z,6.10
2018-04-02T12:57:36.967Z,6.30
2018-04-02T12:58:37.055Z,6.70
2018-04-02T12:59:37.157Z,6.50
2018-04-02T13:00:37.253Z,6.70